sensor_id;sensor_type;location;lat;lon;timestamp;P1;durP1;ratioP1;P2;durP2;ratioP2
41683;SDS011;27369;52.030;4.586;2023-06-22T00:01:55;0.00;;;0.00;;
41683;SDS011;27369;52.030;4.586;2023-06-22T00:04:20;0.00;;;0.00;;
41683;SDS011;27369;52.030;4.586;2023-06-22T00:06:46;0.03;;;0.03;;
41683;SDS011;27369;52.030;4.586;2023-06-22T00:09:11;0.00;;;0.00;;
41683;SDS011;27369;52.030;4.586;2023-06-22T00:11:37;0.00;;;0.00;;
41683;SDS011;27369;52.030;4.586;2023-06-22T00:14:03;0.00;;;0.00;;
41683;SDS011;27369;52.030;4.586;2023-06-22T00:18:54;0.00;;;0.00;;
41683;SDS011;27369;52.030;4.586;2023-06-22T00:21:20;0.00;;;0.00;;
41683;SDS011;27369;52.030;4.586;2023-06-22T00:23:45;0.00;;;0.00;;
41683;SDS011;27369;52.030;4.586;2023-06-22T00:26:12;0.00;;;0.00;;
41683;SDS011;27369;52.030;4.586;2023-06-22T00:28:38;0.00;;;0.00;;
41683;SDS011;27369;52.030;4.586;2023-06-22T00:31:03;0.13;;;0.13;;
41683;SDS011;27369;52.030;4.586;2023-06-22T00:33:29;0.00;;;0.00;;
41683;SDS011;27369;52.030;4.586;2023-06-22T00:35:54;0.00;;;0.00;;
41683;SDS011;27369;52.030;4.586;2023-06-22T00:38:19;0.00;;;0.00;;
41683;SDS011;27369;52.030;4.586;2023-06-22T00:40:45;0.00;;;0.00;;
41683;SDS011;27369;52.030;4.586;2023-06-22T00:43:11;0.15;;;0.15;;
41683;SDS011;27369;52.030;4.586;2023-06-22T00:45:38;0.00;;;0.00;;
41683;SDS011;27369;52.030;4.586;2023-06-22T00:48:03;0.00;;;0.00;;
41683;SDS011;27369;52.030;4.586;2023-06-22T00:50:30;0.25;;;0.25;;
41683;SDS011;27369;52.030;4.586;2023-06-22T00:53:01;0.00;;;0.00;;
41683;SDS011;27369;52.030;4.586;2023-06-22T00:55:41;0.00;;;0.00;;
41683;SDS011;27369;52.030;4.586;2023-06-22T00:58:12;0.00;;;0.00;;
41683;SDS011;27369;52.030;4.586;2023-06-22T01:00:39;0.00;;;0.00;;
41683;SDS011;27369;52.030;4.586;2023-06-22T01:03:06;0.00;;;0.00;;
41683;SDS011;27369;52.030;4.586;2023-06-22T01:05:34;0.00;;;0.00;;
41683;SDS011;27369;52.030;4.586;2023-06-22T01:18:55;0.00;;;0.00;;
41683;SDS011;27369;52.030;4.586;2023-06-22T01:21:26;0.00;;;0.00;;
41683;SDS011;27369;52.030;4.586;2023-06-22T01:26:38;0.05;;;0.05;;
41683;SDS011;27369;52.030;4.586;2023-06-22T01:29:09;0.40;;;0.40;;
41683;SDS011;27369;52.030;4.586;2023-06-22T01:31:39;0.82;;;0.80;;
41683;SDS011;27369;52.030;4.586;2023-06-22T01:34:06;0.00;;;0.00;;
41683;SDS011;27369;52.030;4.586;2023-06-22T01:36:34;0.00;;;0.00;;
41683;SDS011;27369;52.030;4.586;2023-06-22T01:39:01;0.15;;;0.15;;
41683;SDS011;27369;52.030;4.586;2023-06-22T01:41:30;0.00;;;0.00;;
41683;SDS011;27369;52.030;4.586;2023-06-22T01:44:00;0.15;;;0.15;;
41683;SDS011;27369;52.030;4.586;2023-06-22T01:46:27;0.00;;;0.00;;
41683;SDS011;27369;52.030;4.586;2023-06-22T01:51:20;0.00;;;0.00;;
41683;SDS011;27369;52.030;4.586;2023-06-22T01:53:45;0.00;;;0.00;;
41683;SDS011;27369;52.030;4.586;2023-06-22T01:56:12;0.00;;;0.00;;
41683;SDS011;27369;52.030;4.586;2023-06-22T02:01:40;0.00;;;0.00;;
41683;SDS011;27369;52.030;4.586;2023-06-22T02:04:11;0.00;;;0.00;;
41683;SDS011;27369;52.030;4.586;2023-06-22T02:06:43;0.00;;;0.00;;
41683;SDS011;27369;52.030;4.586;2023-06-22T02:09:15;0.00;;;0.00;;
41683;SDS011;27369;52.030;4.586;2023-06-22T02:11:44;0.00;;;0.00;;
41683;SDS011;27369;52.030;4.586;2023-06-22T02:14:12;0.00;;;0.00;;
41683;SDS011;27369;52.030;4.586;2023-06-22T02:16:38;0.00;;;0.00;;
41683;SDS011;27369;52.030;4.586;2023-06-22T02:19:04;0.00;;;0.00;;
41683;SDS011;27369;52.030;4.586;2023-06-22T02:21:31;0.00;;;0.00;;
41683;SDS011;27369;52.030;4.586;2023-06-22T02:23:58;0.00;;;0.00;;
41683;SDS011;27369;52.030;4.586;2023-06-22T02:26:24;0.00;;;0.00;;
41683;SDS011;27369;52.030;4.586;2023-06-22T02:28:50;0.00;;;0.00;;
41683;SDS011;27369;52.030;4.586;2023-06-22T02:31:16;0.00;;;0.00;;
41683;SDS011;27369;52.030;4.586;2023-06-22T02:33:41;0.00;;;0.00;;
41683;SDS011;27369;52.030;4.586;2023-06-22T02:36:08;0.00;;;0.00;;
41683;SDS011;27369;52.030;4.586;2023-06-22T02:38:34;0.00;;;0.00;;
41683;SDS011;27369;52.030;4.586;2023-06-22T02:41:01;0.00;;;0.00;;
41683;SDS011;27369;52.030;4.586;2023-06-22T02:43:27;1.48;;;1.45;;
41683;SDS011;27369;52.030;4.586;2023-06-22T02:45:52;0.00;;;0.00;;
41683;SDS011;27369;52.030;4.586;2023-06-22T02:48:18;0.00;;;0.00;;
41683;SDS011;27369;52.030;4.586;2023-06-22T02:50:44;0.00;;;0.00;;
41683;SDS011;27369;52.030;4.586;2023-06-22T02:53:09;0.00;;;0.00;;
41683;SDS011;27369;52.030;4.586;2023-06-22T02:55:34;0.00;;;0.00;;
41683;SDS011;27369;52.030;4.586;2023-06-22T02:58:00;0.17;;;0.17;;
41683;SDS011;27369;52.030;4.586;2023-06-22T03:00:30;0.00;;;0.00;;
41683;SDS011;27369;52.030;4.586;2023-06-22T03:05:22;1.13;;;0.98;;
41683;SDS011;27369;52.030;4.586;2023-06-22T03:07:47;0.00;;;0.00;;
41683;SDS011;27369;52.030;4.586;2023-06-22T03:10:13;0.00;;;0.00;;
41683;SDS011;27369;52.030;4.586;2023-06-22T03:12:40;0.00;;;0.00;;
41683;SDS011;27369;52.030;4.586;2023-06-22T03:15:07;0.13;;;0.13;;
41683;SDS011;27369;52.030;4.586;2023-06-22T03:17:37;0.50;;;0.50;;
41683;SDS011;27369;52.030;4.586;2023-06-22T03:20:04;0.00;;;0.00;;
41683;SDS011;27369;52.030;4.586;2023-06-22T03:22:40;0.00;;;0.00;;
41683;SDS011;27369;52.030;4.586;2023-06-22T03:25:07;0.00;;;0.00;;
41683;SDS011;27369;52.030;4.586;2023-06-22T03:27:38;0.00;;;0.00;;
41683;SDS011;27369;52.030;4.586;2023-06-22T03:30:05;0.00;;;0.00;;
41683;SDS011;27369;52.030;4.586;2023-06-22T03:32:33;0.00;;;0.00;;
41683;SDS011;27369;52.030;4.586;2023-06-22T03:34:58;0.00;;;0.00;;
41683;SDS011;27369;52.030;4.586;2023-06-22T03:37:24;0.00;;;0.00;;
41683;SDS011;27369;52.030;4.586;2023-06-22T03:39:50;0.00;;;0.00;;
41683;SDS011;27369;52.030;4.586;2023-06-22T03:42:16;0.00;;;0.00;;
41683;SDS011;27369;52.030;4.586;2023-06-22T03:44:42;0.00;;;0.00;;
41683;SDS011;27369;52.030;4.586;2023-06-22T03:47:07;0.00;;;0.00;;
41683;SDS011;27369;52.030;4.586;2023-06-22T03:49:33;0.00;;;0.00;;
41683;SDS011;27369;52.030;4.586;2023-06-22T03:51:59;0.00;;;0.00;;
41683;SDS011;27369;52.030;4.586;2023-06-22T03:54:26;0.00;;;0.00;;
41683;SDS011;27369;52.030;4.586;2023-06-22T03:59:18;0.00;;;0.00;;
41683;SDS011;27369;52.030;4.586;2023-06-22T04:01:43;0.00;;;0.00;;
41683;SDS011;27369;52.030;4.586;2023-06-22T04:04:09;0.00;;;0.00;;
41683;SDS011;27369;52.030;4.586;2023-06-22T04:06:35;0.03;;;0.03;;
41683;SDS011;27369;52.030;4.586;2023-06-22T04:09:00;0.00;;;0.00;;
41683;SDS011;27369;52.030;4.586;2023-06-22T04:11:26;0.00;;;0.00;;
41683;SDS011;27369;52.030;4.586;2023-06-22T04:13:51;0.00;;;0.00;;
41683;SDS011;27369;52.030;4.586;2023-06-22T04:16:17;0.00;;;0.00;;
41683;SDS011;27369;52.030;4.586;2023-06-22T04:18:42;0.00;;;0.00;;
41683;SDS011;27369;52.030;4.586;2023-06-22T04:21:09;0.00;;;0.00;;
41683;SDS011;27369;52.030;4.586;2023-06-22T04:23:35;1.02;;;0.20;;
41683;SDS011;27369;52.030;4.586;2023-06-22T04:26:00;0.00;;;0.00;;
41683;SDS011;27369;52.030;4.586;2023-06-22T04:28:26;0.00;;;0.00;;
41683;SDS011;27369;52.030;4.586;2023-06-22T04:30:51;0.20;;;0.20;;
41683;SDS011;27369;52.030;4.586;2023-06-22T04:33:17;0.00;;;0.00;;
41683;SDS011;27369;52.030;4.586;2023-06-22T04:35:46;0.30;;;0.30;;
41683;SDS011;27369;52.030;4.586;2023-06-22T04:38:12;0.00;;;0.00;;
41683;SDS011;27369;52.030;4.586;2023-06-22T04:40:40;0.20;;;0.20;;
41683;SDS011;27369;52.030;4.586;2023-06-22T04:43:06;0.00;;;0.00;;
41683;SDS011;27369;52.030;4.586;2023-06-22T04:45:32;0.30;;;0.30;;
41683;SDS011;27369;52.030;4.586;2023-06-22T04:47:58;0.00;;;0.00;;
41683;SDS011;27369;52.030;4.586;2023-06-22T04:50:24;0.37;;;0.37;;
41683;SDS011;27369;52.030;4.586;2023-06-22T04:52:49;0.00;;;0.00;;
41683;SDS011;27369;52.030;4.586;2023-06-22T04:55:15;0.10;;;0.10;;
41683;SDS011;27369;52.030;4.586;2023-06-22T04:57:47;0.10;;;0.10;;
41683;SDS011;27369;52.030;4.586;2023-06-22T05:00:22;0.00;;;0.00;;
41683;SDS011;27369;52.030;4.586;2023-06-22T05:02:48;0.10;;;0.10;;
41683;SDS011;27369;52.030;4.586;2023-06-22T05:05:14;0.20;;;0.20;;
41683;SDS011;27369;52.030;4.586;2023-06-22T05:07:44;0.00;;;0.00;;
41683;SDS011;27369;52.030;4.586;2023-06-22T05:10:13;0.10;;;0.10;;
41683;SDS011;27369;52.030;4.586;2023-06-22T05:12:39;0.00;;;0.00;;
41683;SDS011;27369;52.030;4.586;2023-06-22T05:15:06;0.57;;;0.57;;
41683;SDS011;27369;52.030;4.586;2023-06-22T05:17:32;0.35;;;0.35;;
41683;SDS011;27369;52.030;4.586;2023-06-22T05:19:58;0.27;;;0.27;;
41683;SDS011;27369;52.030;4.586;2023-06-22T05:22:24;0.17;;;0.17;;
41683;SDS011;27369;52.030;4.586;2023-06-22T05:24:49;0.00;;;0.00;;
41683;SDS011;27369;52.030;4.586;2023-06-22T05:29:40;5.30;;;1.13;;
41683;SDS011;27369;52.030;4.586;2023-06-22T05:32:07;1.30;;;1.20;;
41683;SDS011;27369;52.030;4.586;2023-06-22T05:36:58;0.57;;;0.57;;
41683;SDS011;27369;52.030;4.586;2023-06-22T05:39:24;1.60;;;1.27;;
41683;SDS011;27369;52.030;4.586;2023-06-22T05:41:50;0.25;;;0.25;;
41683;SDS011;27369;52.030;4.586;2023-06-22T05:46:42;0.10;;;0.10;;
41683;SDS011;27369;52.030;4.586;2023-06-22T05:49:13;0.50;;;0.50;;
41683;SDS011;27369;52.030;4.586;2023-06-22T05:51:40;0.10;;;0.10;;
41683;SDS011;27369;52.030;4.586;2023-06-22T05:56:31;0.10;;;0.10;;
41683;SDS011;27369;52.030;4.586;2023-06-22T05:58:56;0.07;;;0.07;;
41683;SDS011;27369;52.030;4.586;2023-06-22T06:03:47;0.00;;;0.00;;
41683;SDS011;27369;52.030;4.586;2023-06-22T06:06:14;0.47;;;0.47;;
41683;SDS011;27369;52.030;4.586;2023-06-22T06:11:07;0.30;;;0.30;;
41683;SDS011;27369;52.030;4.586;2023-06-22T06:13:33;0.65;;;0.65;;
41683;SDS011;27369;52.030;4.586;2023-06-22T06:18:24;5.33;;;0.97;;
41683;SDS011;27369;52.030;4.586;2023-06-22T06:23:15;0.90;;;0.90;;
41683;SDS011;27369;52.030;4.586;2023-06-22T06:25:40;0.37;;;0.33;;
41683;SDS011;27369;52.030;4.586;2023-06-22T06:28:06;1.00;;;1.00;;
41683;SDS011;27369;52.030;4.586;2023-06-22T06:30:31;0.27;;;0.27;;
41683;SDS011;27369;52.030;4.586;2023-06-22T06:35:23;0.07;;;0.07;;
41683;SDS011;27369;52.030;4.586;2023-06-22T06:40:15;1.02;;;1.02;;
41683;SDS011;27369;52.030;4.586;2023-06-22T06:42:43;2.03;;;1.10;;
41683;SDS011;27369;52.030;4.586;2023-06-22T06:45:15;0.55;;;0.52;;
41683;SDS011;27369;52.030;4.586;2023-06-22T06:47:42;0.75;;;0.75;;
41683;SDS011;27369;52.030;4.586;2023-06-22T06:52:33;0.20;;;0.20;;
41683;SDS011;27369;52.030;4.586;2023-06-22T06:57:24;0.03;;;0.03;;
41683;SDS011;27369;52.030;4.586;2023-06-22T06:59:54;0.10;;;0.10;;
41683;SDS011;27369;52.030;4.586;2023-06-22T07:02:20;0.00;;;0.00;;
41683;SDS011;27369;52.030;4.586;2023-06-22T07:07:12;0.00;;;0.00;;
41683;SDS011;27369;52.030;4.586;2023-06-22T07:12:03;0.30;;;0.30;;
41683;SDS011;27369;52.030;4.586;2023-06-22T07:14:28;0.67;;;0.67;;
41683;SDS011;27369;52.030;4.586;2023-06-22T07:16:54;0.00;;;0.00;;
41683;SDS011;27369;52.030;4.586;2023-06-22T07:19:25;1.80;;;0.63;;
41683;SDS011;27369;52.030;4.586;2023-06-22T07:21:52;4.30;;;1.55;;
41683;SDS011;27369;52.030;4.586;2023-06-22T07:24:19;2.28;;;2.08;;
41683;SDS011;27369;52.030;4.586;2023-06-22T07:26:46;2.85;;;1.50;;
41683;SDS011;27369;52.030;4.586;2023-06-22T07:29:13;0.45;;;0.30;;
41683;SDS011;27369;52.030;4.586;2023-06-22T07:31:39;0.97;;;0.97;;
41683;SDS011;27369;52.030;4.586;2023-06-22T07:34:06;1.25;;;0.82;;
41683;SDS011;27369;52.030;4.586;2023-06-22T07:36:31;1.20;;;0.97;;
41683;SDS011;27369;52.030;4.586;2023-06-22T07:38:57;0.83;;;0.63;;
41683;SDS011;27369;52.030;4.586;2023-06-22T07:41:22;1.13;;;1.07;;
41683;SDS011;27369;52.030;4.586;2023-06-22T07:43:48;5.90;;;1.90;;
41683;SDS011;27369;52.030;4.586;2023-06-22T07:46:13;0.47;;;0.47;;
41683;SDS011;27369;52.030;4.586;2023-06-22T07:48:38;1.10;;;0.70;;
41683;SDS011;27369;52.030;4.586;2023-06-22T07:51:05;1.13;;;1.02;;
41683;SDS011;27369;52.030;4.586;2023-06-22T07:53:31;3.53;;;1.97;;
41683;SDS011;27369;52.030;4.586;2023-06-22T07:55:56;2.73;;;0.47;;
41683;SDS011;27369;52.030;4.586;2023-06-22T07:58:22;0.50;;;0.47;;
41683;SDS011;27369;52.030;4.586;2023-06-22T08:00:47;1.40;;;1.30;;
41683;SDS011;27369;52.030;4.586;2023-06-22T08:03:14;2.92;;;1.00;;
41683;SDS011;27369;52.030;4.586;2023-06-22T08:05:40;0.40;;;0.27;;
41683;SDS011;27369;52.030;4.586;2023-06-22T08:08:05;0.53;;;0.53;;
41683;SDS011;27369;52.030;4.586;2023-06-22T08:10:31;2.40;;;1.13;;
41683;SDS011;27369;52.030;4.586;2023-06-22T08:12:56;0.50;;;0.50;;
41683;SDS011;27369;52.030;4.586;2023-06-22T08:15:22;0.00;;;0.00;;
41683;SDS011;27369;52.030;4.586;2023-06-22T08:17:47;0.60;;;0.60;;
41683;SDS011;27369;52.030;4.586;2023-06-22T08:20:13;0.93;;;0.93;;
41683;SDS011;27369;52.030;4.586;2023-06-22T08:22:41;2.00;;;1.17;;
41683;SDS011;27369;52.030;4.586;2023-06-22T08:25:07;0.20;;;0.20;;
41683;SDS011;27369;52.030;4.586;2023-06-22T08:27:34;2.03;;;1.43;;
41683;SDS011;27369;52.030;4.586;2023-06-22T08:30:00;1.60;;;1.30;;
41683;SDS011;27369;52.030;4.586;2023-06-22T08:32:29;1.27;;;0.93;;
41683;SDS011;27369;52.030;4.586;2023-06-22T08:34:55;2.08;;;1.20;;
41683;SDS011;27369;52.030;4.586;2023-06-22T08:37:21;0.10;;;0.10;;
41683;SDS011;27369;52.030;4.586;2023-06-22T08:39:49;2.17;;;1.57;;
41683;SDS011;27369;52.030;4.586;2023-06-22T08:42:15;3.03;;;1.80;;
41683;SDS011;27369;52.030;4.586;2023-06-22T08:44:41;0.97;;;0.97;;
41683;SDS011;27369;52.030;4.586;2023-06-22T08:47:06;0.20;;;0.20;;
41683;SDS011;27369;52.030;4.586;2023-06-22T08:49:32;4.37;;;2.43;;
41683;SDS011;27369;52.030;4.586;2023-06-22T08:51:57;2.73;;;2.07;;
41683;SDS011;27369;52.030;4.586;2023-06-22T08:54:23;3.27;;;2.60;;
41683;SDS011;27369;52.030;4.586;2023-06-22T08:56:48;0.83;;;0.83;;
41683;SDS011;27369;52.030;4.586;2023-06-22T08:59:14;1.37;;;1.27;;
41683;SDS011;27369;52.030;4.586;2023-06-22T09:01:39;3.80;;;1.47;;
41683;SDS011;27369;52.030;4.586;2023-06-22T09:04:05;3.27;;;1.60;;
41683;SDS011;27369;52.030;4.586;2023-06-22T09:06:32;2.80;;;2.20;;
41683;SDS011;27369;52.030;4.586;2023-06-22T09:08:57;2.77;;;1.80;;
41683;SDS011;27369;52.030;4.586;2023-06-22T09:11:26;3.17;;;2.27;;
41683;SDS011;27369;52.030;4.586;2023-06-22T09:13:51;2.77;;;2.53;;
41683;SDS011;27369;52.030;4.586;2023-06-22T09:16:18;2.80;;;2.57;;
41683;SDS011;27369;52.030;4.586;2023-06-22T09:18:46;1.13;;;1.03;;
41683;SDS011;27369;52.030;4.586;2023-06-22T09:21:12;0.70;;;0.70;;
41683;SDS011;27369;52.030;4.586;2023-06-22T09:23:38;0.90;;;0.90;;
41683;SDS011;27369;52.030;4.586;2023-06-22T09:26:03;3.53;;;2.60;;
41683;SDS011;27369;52.030;4.586;2023-06-22T09:28:29;1.87;;;1.77;;
41683;SDS011;27369;52.030;4.586;2023-06-22T09:30:54;3.23;;;1.80;;
41683;SDS011;27369;52.030;4.586;2023-06-22T09:33:23;2.75;;;2.20;;
41683;SDS011;27369;52.030;4.586;2023-06-22T09:35:49;2.63;;;2.28;;
41683;SDS011;27369;52.030;4.586;2023-06-22T09:38:15;1.90;;;1.63;;
41683;SDS011;27369;52.030;4.586;2023-06-22T09:40:41;4.67;;;2.73;;
41683;SDS011;27369;52.030;4.586;2023-06-22T09:43:06;3.47;;;1.43;;
41683;SDS011;27369;52.030;4.586;2023-06-22T09:45:32;2.07;;;1.37;;
41683;SDS011;27369;52.030;4.586;2023-06-22T09:47:57;3.33;;;2.80;;
41683;SDS011;27369;52.030;4.586;2023-06-22T09:50:23;2.23;;;1.40;;
41683;SDS011;27369;52.030;4.586;2023-06-22T09:52:49;2.33;;;0.63;;
41683;SDS011;27369;52.030;4.586;2023-06-22T09:55:19;3.65;;;2.65;;
41683;SDS011;27369;52.030;4.586;2023-06-22T09:57:45;2.40;;;2.17;;
41683;SDS011;27369;52.030;4.586;2023-06-22T10:00:10;2.97;;;2.60;;
41683;SDS011;27369;52.030;4.586;2023-06-22T10:02:38;0.00;;;0.00;;
41683;SDS011;27369;52.030;4.586;2023-06-22T10:05:04;2.47;;;2.23;;
41683;SDS011;27369;52.030;4.586;2023-06-22T10:07:30;3.57;;;2.33;;
41683;SDS011;27369;52.030;4.586;2023-06-22T10:09:55;1.03;;;0.97;;
41683;SDS011;27369;52.030;4.586;2023-06-22T10:12:21;4.07;;;0.47;;
41683;SDS011;27369;52.030;4.586;2023-06-22T10:14:46;2.20;;;1.70;;
41683;SDS011;27369;52.030;4.586;2023-06-22T10:17:12;2.33;;;1.10;;
41683;SDS011;27369;52.030;4.586;2023-06-22T10:19:37;3.00;;;1.20;;
41683;SDS011;27369;52.030;4.586;2023-06-22T10:22:04;2.37;;;1.40;;
41683;SDS011;27369;52.030;4.586;2023-06-22T10:24:30;1.38;;;1.27;;
41683;SDS011;27369;52.030;4.586;2023-06-22T10:26:55;5.20;;;2.53;;
41683;SDS011;27369;52.030;4.586;2023-06-22T10:29:21;2.80;;;2.33;;
41683;SDS011;27369;52.030;4.586;2023-06-22T10:31:46;5.07;;;1.77;;
41683;SDS011;27369;52.030;4.586;2023-06-22T10:34:12;6.93;;;2.57;;
41683;SDS011;27369;52.030;4.586;2023-06-22T10:36:38;1.37;;;1.33;;
41683;SDS011;27369;52.030;4.586;2023-06-22T10:39:03;3.17;;;2.58;;
41683;SDS011;27369;52.030;4.586;2023-06-22T10:41:29;0.10;;;0.10;;
41683;SDS011;27369;52.030;4.586;2023-06-22T10:43:55;1.40;;;1.30;;
41683;SDS011;27369;52.030;4.586;2023-06-22T10:46:21;3.23;;;2.10;;
41683;SDS011;27369;52.030;4.586;2023-06-22T10:48:49;2.90;;;2.33;;
41683;SDS011;27369;52.030;4.586;2023-06-22T10:51:15;0.57;;;0.57;;
41683;SDS011;27369;52.030;4.586;2023-06-22T10:53:40;0.63;;;0.63;;
41683;SDS011;27369;52.030;4.586;2023-06-22T10:56:06;1.30;;;1.20;;
41683;SDS011;27369;52.030;4.586;2023-06-22T10:58:31;0.87;;;0.80;;
41683;SDS011;27369;52.030;4.586;2023-06-22T11:00:57;2.13;;;1.30;;
41683;SDS011;27369;52.030;4.586;2023-06-22T11:03:24;3.75;;;1.75;;
41683;SDS011;27369;52.030;4.586;2023-06-22T11:05:49;0.50;;;0.47;;
41683;SDS011;27369;52.030;4.586;2023-06-22T11:08:15;0.60;;;0.60;;
41683;SDS011;27369;52.030;4.586;2023-06-22T11:10:40;0.47;;;0.47;;
41683;SDS011;27369;52.030;4.586;2023-06-22T11:13:06;1.60;;;1.50;;
41683;SDS011;27369;52.030;4.586;2023-06-22T11:15:34;1.05;;;0.98;;
41683;SDS011;27369;52.030;4.586;2023-06-22T11:18:00;1.20;;;0.50;;
41683;SDS011;27369;52.030;4.586;2023-06-22T11:20:25;2.63;;;1.37;;
41683;SDS011;27369;52.030;4.586;2023-06-22T11:22:51;1.17;;;1.07;;
41683;SDS011;27369;52.030;4.586;2023-06-22T11:25:16;0.97;;;0.43;;
41683;SDS011;27369;52.030;4.586;2023-06-22T11:27:42;3.20;;;1.67;;
41683;SDS011;27369;52.030;4.586;2023-06-22T11:30:07;4.07;;;1.20;;
41683;SDS011;27369;52.030;4.586;2023-06-22T11:32:33;2.53;;;1.93;;
41683;SDS011;27369;52.030;4.586;2023-06-22T11:34:59;3.13;;;2.17;;
41683;SDS011;27369;52.030;4.586;2023-06-22T11:37:24;2.20;;;1.70;;
41683;SDS011;27369;52.030;4.586;2023-06-22T11:39:50;1.33;;;1.23;;
41683;SDS011;27369;52.030;4.586;2023-06-22T11:42:15;1.67;;;1.23;;
41683;SDS011;27369;52.030;4.586;2023-06-22T11:44:41;4.50;;;2.67;;
41683;SDS011;27369;52.030;4.586;2023-06-22T11:47:07;4.03;;;1.42;;
41683;SDS011;27369;52.030;4.586;2023-06-22T11:49:33;1.30;;;1.20;;
41683;SDS011;27369;52.030;4.586;2023-06-22T11:51:58;2.97;;;2.67;;
41683;SDS011;27369;52.030;4.586;2023-06-22T11:54:24;3.30;;;2.93;;
41683;SDS011;27369;52.030;4.586;2023-06-22T11:59:15;1.07;;;1.03;;
41683;SDS011;27369;52.030;4.586;2023-06-22T12:01:40;3.30;;;2.57;;
41683;SDS011;27369;52.030;4.586;2023-06-22T12:04:06;1.60;;;1.50;;
41683;SDS011;27369;52.030;4.586;2023-06-22T12:06:32;2.23;;;1.10;;
41683;SDS011;27369;52.030;4.586;2023-06-22T12:08:58;2.58;;;2.03;;
41683;SDS011;27369;52.030;4.586;2023-06-22T12:11:24;5.10;;;3.50;;
41683;SDS011;27369;52.030;4.586;2023-06-22T12:13:49;1.57;;;1.47;;
41683;SDS011;27369;52.030;4.586;2023-06-22T12:16:14;2.27;;;1.23;;
41683;SDS011;27369;52.030;4.586;2023-06-22T12:21:05;1.63;;;1.53;;
41683;SDS011;27369;52.030;4.586;2023-06-22T12:25:56;5.07;;;3.50;;
41683;SDS011;27369;52.030;4.586;2023-06-22T12:28:21;6.93;;;4.67;;
41683;SDS011;27369;52.030;4.586;2023-06-22T12:30:48;2.00;;;1.85;;
41683;SDS011;27369;52.030;4.586;2023-06-22T12:33:13;0.97;;;0.97;;
41683;SDS011;27369;52.030;4.586;2023-06-22T12:38:04;2.57;;;1.87;;
41683;SDS011;27369;52.030;4.586;2023-06-22T12:40:32;2.33;;;1.67;;
41683;SDS011;27369;52.030;4.586;2023-06-22T12:42:58;2.17;;;2.00;;
41683;SDS011;27369;52.030;4.586;2023-06-22T12:45:23;3.27;;;1.97;;
41683;SDS011;27369;52.030;4.586;2023-06-22T12:47:50;3.03;;;2.67;;
41683;SDS011;27369;52.030;4.586;2023-06-22T12:50:15;6.00;;;4.60;;
41683;SDS011;27369;52.030;4.586;2023-06-22T12:55:07;2.97;;;2.77;;
41683;SDS011;27369;52.030;4.586;2023-06-22T12:57:33;2.50;;;2.30;;
41683;SDS011;27369;52.030;4.586;2023-06-22T13:02:25;3.70;;;2.30;;
41683;SDS011;27369;52.030;4.586;2023-06-22T13:04:51;2.27;;;2.07;;
41683;SDS011;27369;52.030;4.586;2023-06-22T13:07:16;3.80;;;1.23;;
41683;SDS011;27369;52.030;4.586;2023-06-22T13:12:08;4.95;;;3.78;;
41683;SDS011;27369;52.030;4.586;2023-06-22T13:16:59;5.53;;;3.97;;
41683;SDS011;27369;52.030;4.586;2023-06-22T13:19:24;1.13;;;1.03;;
41683;SDS011;27369;52.030;4.586;2023-06-22T13:21:52;2.47;;;2.30;;
41683;SDS011;27369;52.030;4.586;2023-06-22T13:24:18;0.47;;;0.20;;
41683;SDS011;27369;52.030;4.586;2023-06-22T13:29:09;0.80;;;0.80;;
41683;SDS011;27369;52.030;4.586;2023-06-22T13:31:34;2.17;;;2.07;;
41683;SDS011;27369;52.030;4.586;2023-06-22T13:36:25;2.67;;;2.47;;
41683;SDS011;27369;52.030;4.586;2023-06-22T13:38:50;3.83;;;2.10;;
41683;SDS011;27369;52.030;4.586;2023-06-22T13:43:41;1.47;;;1.37;;
41683;SDS011;27369;52.030;4.586;2023-06-22T13:48:32;2.17;;;1.97;;
41683;SDS011;27369;52.030;4.586;2023-06-22T13:50:57;1.67;;;1.57;;
41683;SDS011;27369;52.030;4.586;2023-06-22T13:55:49;1.60;;;1.38;;
41683;SDS011;27369;52.030;4.586;2023-06-22T13:58:15;2.93;;;2.03;;
41683;SDS011;27369;52.030;4.586;2023-06-22T14:03:06;0.80;;;0.60;;
41683;SDS011;27369;52.030;4.586;2023-06-22T14:07:57;0.47;;;0.47;;
41683;SDS011;27369;52.030;4.586;2023-06-22T14:12:47;3.30;;;1.57;;
41683;SDS011;27369;52.030;4.586;2023-06-22T14:17:38;0.53;;;0.53;;
41683;SDS011;27369;52.030;4.586;2023-06-22T14:22:30;1.45;;;0.70;;
41683;SDS011;27369;52.030;4.586;2023-06-22T14:27:22;2.45;;;2.25;;
41683;SDS011;27369;52.030;4.586;2023-06-22T14:32:13;1.47;;;1.37;;
41683;SDS011;27369;52.030;4.586;2023-06-22T14:37:07;1.07;;;1.07;;
41683;SDS011;27369;52.030;4.586;2023-06-22T14:39:34;0.63;;;0.63;;
41683;SDS011;27369;52.030;4.586;2023-06-22T14:44:26;2.37;;;2.17;;
41683;SDS011;27369;52.030;4.586;2023-06-22T14:46:54;1.65;;;1.55;;
41683;SDS011;27369;52.030;4.586;2023-06-22T14:51:45;0.27;;;0.27;;
41683;SDS011;27369;52.030;4.586;2023-06-22T14:56:35;0.20;;;0.20;;
41683;SDS011;27369;52.030;4.586;2023-06-22T15:01:26;0.83;;;0.83;;
41683;SDS011;27369;52.030;4.586;2023-06-22T15:06:17;0.40;;;0.40;;
41683;SDS011;27369;52.030;4.586;2023-06-22T15:11:08;0.33;;;0.33;;
41683;SDS011;27369;52.030;4.586;2023-06-22T15:16:02;0.30;;;0.30;;
41683;SDS011;27369;52.030;4.586;2023-06-22T15:18:31;1.60;;;1.23;;
41683;SDS011;27369;52.030;4.586;2023-06-22T15:20:58;0.00;;;0.00;;
41683;SDS011;27369;52.030;4.586;2023-06-22T15:23:26;0.20;;;0.20;;
41683;SDS011;27369;52.030;4.586;2023-06-22T15:25:53;0.73;;;0.70;;
41683;SDS011;27369;52.030;4.586;2023-06-22T15:30:46;0.03;;;0.03;;
41683;SDS011;27369;52.030;4.586;2023-06-22T15:33:12;0.82;;;0.63;;
41683;SDS011;27369;52.030;4.586;2023-06-22T15:38:03;0.53;;;0.40;;
41683;SDS011;27369;52.030;4.586;2023-06-22T15:42:54;0.10;;;0.10;;
41683;SDS011;27369;52.030;4.586;2023-06-22T15:47:45;0.00;;;0.00;;
41683;SDS011;27369;52.030;4.586;2023-06-22T15:52:36;0.00;;;0.00;;
41683;SDS011;27369;52.030;4.586;2023-06-22T15:57:27;0.00;;;0.00;;
41683;SDS011;27369;52.030;4.586;2023-06-22T15:59:53;0.10;;;0.10;;
41683;SDS011;27369;52.030;4.586;2023-06-22T16:04:44;0.00;;;0.00;;
41683;SDS011;27369;52.030;4.586;2023-06-22T16:09:37;0.00;;;0.00;;
41683;SDS011;27369;52.030;4.586;2023-06-22T16:12:03;0.00;;;0.00;;
41683;SDS011;27369;52.030;4.586;2023-06-22T16:14:30;0.30;;;0.30;;
41683;SDS011;27369;52.030;4.586;2023-06-22T16:19:21;0.00;;;0.00;;
41683;SDS011;27369;52.030;4.586;2023-06-22T16:24:11;0.10;;;0.10;;
41683;SDS011;27369;52.030;4.586;2023-06-22T16:29:03;0.00;;;0.00;;
41683;SDS011;27369;52.030;4.586;2023-06-22T16:33:54;3.70;;;0.50;;
41683;SDS011;27369;52.030;4.586;2023-06-22T16:38:45;0.00;;;0.00;;
41683;SDS011;27369;52.030;4.586;2023-06-22T16:43:37;0.13;;;0.13;;
41683;SDS011;27369;52.030;4.586;2023-06-22T16:46:05;0.03;;;0.03;;
41683;SDS011;27369;52.030;4.586;2023-06-22T16:50:56;1.23;;;1.23;;
41683;SDS011;27369;52.030;4.586;2023-06-22T16:55:48;0.00;;;0.00;;
41683;SDS011;27369;52.030;4.586;2023-06-22T16:58:14;0.05;;;0.05;;
41683;SDS011;27369;52.030;4.586;2023-06-22T17:00:42;1.45;;;0.80;;
41683;SDS011;27369;52.030;4.586;2023-06-22T17:03:08;0.08;;;0.08;;
41683;SDS011;27369;52.030;4.586;2023-06-22T17:05:40;0.00;;;0.00;;
41683;SDS011;27369;52.030;4.586;2023-06-22T17:10:32;0.00;;;0.00;;
41683;SDS011;27369;52.030;4.586;2023-06-22T17:15:24;0.00;;;0.00;;
41683;SDS011;27369;52.030;4.586;2023-06-22T17:17:51;0.00;;;0.00;;
41683;SDS011;27369;52.030;4.586;2023-06-22T17:20:18;0.00;;;0.00;;
41683;SDS011;27369;52.030;4.586;2023-06-22T17:25:10;0.00;;;0.00;;
41683;SDS011;27369;52.030;4.586;2023-06-22T17:30:10;0.00;;;0.00;;
41683;SDS011;27369;52.030;4.586;2023-06-22T17:32:43;1.45;;;0.75;;
41683;SDS011;27369;52.030;4.586;2023-06-22T17:35:11;0.00;;;0.00;;
41683;SDS011;27369;52.030;4.586;2023-06-22T17:40:17;1.48;;;1.13;;
41683;SDS011;27369;52.030;4.586;2023-06-22T17:42:43;0.00;;;0.00;;